Terminal Aerodrome Forecast
Issued by NWS

Home | Current Version | Previous Version | Text Only | Print | Product List | Glossary On
Versions: 1 2 3 4 5 6 7 8 9 10 11 12 13 14 15 16 17 18 19 20 21 22 23 24 25 26 27 28
000
FTUS42 KRAH 102339
TAFINT
TAF
KINT 102339Z 1100/1124 VRB03KT P6SM FEW150 SCT250
     FM111700 17007KT P6SM SCT040 BKN250
     FM112100 16007KT P6SM BKN025 OVC035=

USA.gov is the U.S. government's official web portal to all federal, state and local government web resources and services.